Gentryville, Indiana
Current Conditions -  °F | °C
As of 4:35 PM on Wednesday 22 Oct 2014 (Local Time) from KHNB Reporting Station
Clear Clear  
Wind Chill: 61°   Ceiling: Unl
Heat Index: 61°   Visibility: 9mi
Dew Point: 41°   Wind: 6mph
Humidity: 48%   Direction: 70°ENE
Pressure: 30.23"   Gusts: NA
Location:  38.1°N, 87.03°W
Report Text: KHNB 222135Z AUTO 07005KT 9SM CLR 16/05 A3023 RMK AO1
Loading
Personal Weather Stations






























Interactive Weather Map New forecast layout! Learn more

10-Day Weather Forecast

Advertisements
Track Severe Weather on mobile